createdAt,value
2023-02-28T00:01:28.671Z,102635.57
2023-02-28T00:04:01.254Z,102631.72
2023-02-28T00:06:32.932Z,102632.55
2023-02-28T00:09:08.019Z,102629.92
2023-02-28T00:11:40.359Z,102631.17
2023-02-28T00:14:13.277Z,102634.99
2023-02-28T00:16:45.477Z,102639.27
2023-02-28T00:19:18.143Z,102641.40
2023-02-28T00:21:50.682Z,102639.58
2023-02-28T00:24:22.584Z,102645.67
2023-02-28T00:26:54.962Z,102646.05
2023-02-28T00:29:29.114Z,102643.20
2023-02-28T00:32:03.735Z,102644.85
2023-02-28T00:34:40.544Z,102638.83
2023-02-28T00:37:14.571Z,102639.91
2023-02-28T00:39:58.069Z,102644.84
2023-02-28T00:42:30.795Z,102644.67
2023-02-28T00:45:05.827Z,102643.92
2023-02-28T00:47:39.151Z,102647.08
2023-02-28T00:50:15.019Z,102649.46
2023-02-28T00:52:48.031Z,102653.42
2023-02-28T00:55:20.626Z,102656.23
2023-02-28T00:57:53.418Z,102652.88
2023-02-28T01:00:26.935Z,102651.52
2023-02-28T01:03:03.826Z,102652.56
2023-02-28T01:05:35.793Z,102656.11
2023-02-28T01:08:08.861Z,102655.09
2023-02-28T01:10:50.049Z,102655.55
2023-02-28T01:13:25.388Z,102656.04
2023-02-28T01:15:59.892Z,102656.23
2023-02-28T01:18:33.096Z,102658.46
2023-02-28T01:21:08.573Z,102660.42
2023-02-28T01:23:44.298Z,102658.15
2023-02-28T01:26:19.057Z,102655.58
2023-02-28T01:28:53.837Z,102651.77
2023-02-28T01:31:26.229Z,102655.12
2023-02-28T01:34:00.076Z,102650.36
2023-02-28T01:36:33.910Z,102648.77
2023-02-28T01:39:07.129Z,102649.70
2023-02-28T01:41:40.775Z,102648.72
2023-02-28T01:44:44.327Z,102652.42
2023-02-28T01:47:17.379Z,102653.52
2023-02-28T01:49:50.408Z,102655.52
2023-02-28T01:52:25.381Z,102656.52
2023-02-28T01:55:02.910Z,102657.17
2023-02-28T01:57:41.860Z,102655.90
2023-02-28T02:00:20.115Z,102653.77
2023-02-28T02:02:56.399Z,102652.84
2023-02-28T02:05:38.466Z,102653.50
2023-02-28T02:08:14.251Z,102655.34
2023-02-28T02:10:52.046Z,102654.85
2023-02-28T02:13:42.563Z,102654.27
2023-02-28T02:16:27.274Z,102653.96
2023-02-28T02:19:17.152Z,102654.62
2023-02-28T02:22:24.230Z,102651.71
2023-02-28T02:25:20.810Z,102658.34
2023-02-28T02:28:18.949Z,102655.98
2023-02-28T02:31:33.641Z,102659.44
2023-02-28T02:34:29.291Z,102662.39
2023-02-28T02:37:34.909Z,102661.07
2023-02-28T02:40:17.751Z,102660.69
2023-02-28T02:42:58.517Z,102656.73
2023-02-28T02:45:36.967Z,102654.41
2023-02-28T02:48:14.316Z,102652.36
2023-02-28T02:50:52.367Z,102656.92
2023-02-28T02:53:31.300Z,102660.21
2023-02-28T02:56:06.295Z,102662.25
2023-02-28T02:58:44.283Z,102660.61
2023-02-28T03:01:28.430Z,102667.29
2023-02-28T03:04:03.634Z,102662.45
2023-02-28T03:06:35.914Z,102662.88
2023-02-28T03:09:07.789Z,102658.16
2023-02-28T03:11:42.682Z,102656.11
2023-02-28T03:14:33.319Z,102657.45
2023-02-28T03:17:27.679Z,102660.63
2023-02-28T03:20:09.043Z,102661.73
2023-02-28T03:22:57.528Z,102663.54
2023-02-28T03:25:41.300Z,102663.33
2023-02-28T03:28:20.062Z,102663.70
2023-02-28T03:30:59.980Z,102666.38
2023-02-28T03:33:37.677Z,102665.61
2023-02-28T03:36:16.001Z,102664.85
2023-02-28T03:38:54.388Z,102665.52
2023-02-28T03:41:30.354Z,102668.77
2023-02-28T03:44:08.475Z,102671.59
2023-02-28T03:46:43.448Z,102674.92
2023-02-28T03:49:21.418Z,102677.13
2023-02-28T03:51:56.203Z,102678.71
2023-02-28T03:54:33.376Z,102681.38
2023-02-28T03:57:13.364Z,102680.96
2023-02-28T03:59:50.085Z,102679.80
2023-02-28T04:02:22.909Z,102676.73
2023-02-28T04:04:57.126Z,102673.84
2023-02-28T04:07:30.909Z,102677.86
2023-02-28T04:10:04.175Z,102685.05
2023-02-28T04:12:36.253Z,102687.64
2023-02-28T04:15:13.234Z,102689.40
2023-02-28T04:17:44.526Z,102688.60
2023-02-28T04:20:17.376Z,102687.86
2023-02-28T04:22:50.423Z,102692.07
2023-02-28T04:25:23.558Z,102697.75
2023-02-28T04:27:56.607Z,102697.75
2023-02-28T04:30:27.901Z,102702.23
2023-02-28T04:33:00.511Z,102698.39
2023-02-28T04:35:33.199Z,102703.20
2023-02-28T04:38:10.447Z,102706.77
2023-02-28T04:40:43.437Z,102706.95
2023-02-28T04:43:16.287Z,102704.08
2023-02-28T04:45:48.929Z,102703.45
2023-02-28T04:48:22.220Z,102701.85
2023-02-28T04:50:55.269Z,102709.12
2023-02-28T04:53:27.526Z,102707.63
2023-02-28T04:56:00.880Z,102705.92
2023-02-28T04:58:32.974Z,102703.47
2023-02-28T05:01:21.453Z,102710.13
2023-02-28T05:03:57.421Z,102711.35
2023-02-28T05:06:31.708Z,102711.37
2023-02-28T05:09:03.944Z,102709.36
2023-02-28T05:11:36.977Z,102706.95
2023-02-28T05:14:16.244Z,102710.85
2023-02-28T05:16:48.229Z,102709.07
2023-02-28T05:19:25.220Z,102707.70
2023-02-28T05:21:59.314Z,102708.52
2023-02-28T05:24:37.307Z,102708.73
2023-02-28T05:27:10.567Z,102712.11
2023-02-28T05:29:43.846Z,102711.77
2023-02-28T05:32:16.669Z,102713.42
2023-02-28T05:34:49.512Z,102710.77
2023-02-28T05:37:23.287Z,102711.42
2023-02-28T05:39:55.542Z,102709.45
2023-02-28T05:42:29.336Z,102711.43
2023-02-28T05:45:02.057Z,102713.89
2023-02-28T05:47:35.938Z,102715.68
2023-02-28T05:50:12.795Z,102718.72
2023-02-28T05:52:45.595Z,102717.03
2023-02-28T05:55:17.870Z,102720.02
2023-02-28T05:57:49.183Z,102721.10
2023-02-28T06:00:23.256Z,102721.51
2023-02-28T06:02:59.303Z,102718.30
2023-02-28T06:05:32.091Z,102723.34
2023-02-28T06:08:04.873Z,102724.09
2023-02-28T06:10:38.561Z,102727.41
2023-02-28T06:13:10.305Z,102734.16
2023-02-28T06:15:43.760Z,102741.72
2023-02-28T06:18:16.676Z,102745.14
2023-02-28T06:20:55.698Z,102741.84
2023-02-28T06:23:32.444Z,102744.13
2023-02-28T06:26:03.723Z,102747.34
2023-02-28T06:28:36.114Z,102747.40
2023-02-28T06:31:16.586Z,102746.17
2023-02-28T06:33:50.941Z,102747.98
2023-02-28T06:36:24.206Z,102745.60
2023-02-28T06:38:57.034Z,102742.30
2023-02-28T06:41:29.176Z,102741.27
2023-02-28T06:44:04.148Z,102741.11
2023-02-28T06:46:38.866Z,102737.30
2023-02-28T06:49:10.923Z,102740.71
2023-02-28T06:51:45.521Z,102742.96
2023-02-28T06:54:18.933Z,102746.84
2023-02-28T06:56:50.877Z,102749.09
2023-02-28T06:59:24.010Z,102756.42
2023-02-28T07:01:57.176Z,102756.67
2023-02-28T07:04:29.754Z,102757.15
2023-02-28T07:07:01.433Z,102759.19
2023-02-28T07:09:34.446Z,102762.95
2023-02-28T07:12:05.994Z,102765.39
2023-02-28T07:14:38.188Z,102769.77
2023-02-28T07:17:12.753Z,102768.56
2023-02-28T07:19:44.748Z,102764.71
2023-02-28T07:22:20.001Z,102763.48
2023-02-28T07:24:50.746Z,102764.55
2023-02-28T07:27:26.876Z,102766.02
2023-02-28T07:30:02.315Z,102765.63
2023-02-28T07:32:34.701Z,102766.13
2023-02-28T07:35:08.293Z,102766.20
2023-02-28T07:37:42.027Z,102771.42
2023-02-28T07:40:18.640Z,102770.06
2023-02-28T07:42:51.056Z,102769.54
2023-02-28T07:45:24.600Z,102767.36
2023-02-28T07:47:57.451Z,102769.88
2023-02-28T07:50:31.204Z,102768.73
2023-02-28T07:53:04.749Z,102764.77
2023-02-28T07:55:36.616Z,102762.81
2023-02-28T07:58:09.963Z,102767.95
2023-02-28T08:00:41.488Z,102768.55
2023-02-28T08:03:15.083Z,102764.94
2023-02-28T08:05:49.168Z,102755.53
2023-02-28T08:08:21.361Z,102754.79
2023-02-28T08:10:52.255Z,102750.30
2023-02-28T08:13:27.247Z,102747.02
2023-02-28T08:15:58.375Z,102750.11
2023-02-28T08:18:30.989Z,102748.70
2023-02-28T08:21:06.868Z,102748.20
2023-02-28T08:23:39.363Z,102750.13
2023-02-28T08:26:12.262Z,102745.73
2023-02-28T08:28:43.883Z,102743.83
2023-02-28T08:31:17.725Z,102743.48
2023-02-28T08:33:52.797Z,102740.28
2023-02-28T08:36:42.555Z,102740.82
2023-02-28T08:39:14.169Z,102742.36
2023-02-28T08:41:47.965Z,102744.85
2023-02-28T08:44:21.952Z,102742.77
2023-02-28T08:46:55.294Z,102744.89
2023-02-28T08:49:27.206Z,102735.23
2023-02-28T08:51:58.691Z,102731.98
2023-02-28T08:54:32.779Z,102725.92
2023-02-28T08:57:04.962Z,102729.67
2023-02-28T08:59:37.136Z,102733.08
2023-02-28T09:02:13.918Z,102735.91
2023-02-28T09:04:48.206Z,102736.95
2023-02-28T09:07:21.314Z,102738.91
2023-02-28T09:09:55.118Z,102742.48
2023-02-28T09:12:28.646Z,102745.16
2023-02-28T09:15:01.082Z,102747.30
2023-02-28T09:17:33.015Z,102743.88
2023-02-28T09:20:07.405Z,102742.21
2023-02-28T09:22:39.691Z,102740.46
2023-02-28T09:25:12.376Z,102737.84
2023-02-28T09:27:46.536Z,102737.39
2023-02-28T09:30:31.050Z,102741.00
2023-02-28T09:33:03.233Z,102740.52
2023-02-28T09:35:38.091Z,102745.62
2023-02-28T09:38:10.753Z,102739.98
2023-02-28T09:40:49.129Z,102738.45
2023-02-28T09:43:23.590Z,102734.52
2023-02-28T09:46:01.888Z,102730.90
2023-02-28T09:48:41.366Z,102728.85
2023-02-28T09:51:30.474Z,102729.59
2023-02-28T09:54:02.572Z,102732.23
2023-02-28T09:56:39.494Z,102729.14
2023-02-28T09:59:20.652Z,102726.27
2023-02-28T10:01:59.798Z,102729.15
2023-02-28T10:04:46.631Z,102733.09
2023-02-28T10:07:40.324Z,102735.75
2023-02-28T10:10:30.829Z,102729.20
2023-02-28T10:13:05.920Z,102726.15
2023-02-28T10:15:39.772Z,102721.85
2023-02-28T10:18:16.825Z,102720.13
2023-02-28T10:20:51.003Z,102719.73
2023-02-28T10:23:27.420Z,102711.02
2023-02-28T10:26:03.417Z,102704.19
2023-02-28T10:28:35.374Z,102703.89
2023-02-28T10:31:08.462Z,102703.73
2023-02-28T10:33:41.288Z,102707.20
2023-02-28T10:36:17.733Z,102703.31
2023-02-28T10:38:51.418Z,102698.02
2023-02-28T10:41:35.290Z,102700.39
2023-02-28T10:44:28.492Z,102698.58
2023-02-28T10:47:01.701Z,102696.56
2023-02-28T10:49:32.449Z,102688.99
2023-02-28T10:52:04.308Z,102687.13
2023-02-28T10:54:38.441Z,102687.45
2023-02-28T10:57:19.437Z,102681.60
2023-02-28T11:00:07.191Z,102681.26
2023-02-28T11:02:41.719Z,102683.98
2023-02-28T11:05:32.852Z,102675.06
2023-02-28T11:08:13.429Z,102668.36
2023-02-28T11:10:55.495Z,102665.73
2023-02-28T11:13:32.255Z,102669.06
2023-02-28T11:16:06.077Z,102669.45
2023-02-28T11:18:43.528Z,102661.80
2023-02-28T11:21:20.655Z,102661.73
2023-02-28T11:23:59.419Z,102656.44
2023-02-28T11:26:44.495Z,102659.02
2023-02-28T11:29:25.135Z,102660.10
2023-02-28T11:32:19.353Z,102660.95
2023-02-28T11:35:04.509Z,102658.18
2023-02-28T11:37:37.142Z,102653.78
2023-02-28T11:40:18.040Z,102645.21
2023-02-28T11:43:03.965Z,102644.48
2023-02-28T11:45:52.709Z,102643.66
2023-02-28T11:48:30.831Z,102640.36
2023-02-28T11:51:12.897Z,102633.20
2023-02-28T11:54:05.157Z,102627.20
2023-02-28T11:56:41.123Z,102624.79
2023-02-28T11:59:44.541Z,102620.15
2023-02-28T12:02:35.317Z,102619.42
2023-02-28T12:05:27.125Z,102622.44
2023-02-28T12:08:13.452Z,102614.45
2023-02-28T12:11:03.147Z,102610.19
2023-02-28T12:13:48.894Z,102610.88
2023-02-28T12:16:48.252Z,102605.17
2023-02-28T12:19:26.343Z,102611.23
2023-02-28T12:22:19.642Z,102613.14
2023-02-28T12:25:14.663Z,102616.30
2023-02-28T12:27:51.564Z,102614.73
2023-02-28T12:30:30.507Z,102613.65
2023-02-28T12:33:10.389Z,102612.29
2023-02-28T12:35:49.110Z,102607.84
2023-02-28T12:38:23.570Z,102606.89
2023-02-28T12:41:03.110Z,102601.92
2023-02-28T12:43:39.758Z,102597.04
2023-02-28T12:46:14.798Z,102600.05
2023-02-28T12:48:49.783Z,102597.27
2023-02-28T12:51:23.519Z,102600.04
2023-02-28T12:54:13.054Z,102593.84
2023-02-28T12:56:52.591Z,102590.45
2023-02-28T12:59:32.512Z,102587.74
2023-02-28T13:02:37.582Z,102579.72
2023-02-28T13:05:52.543Z,102574.95
2023-02-28T13:09:09.722Z,102571.16
2023-02-28T13:11:47.744Z,102562.02
2023-02-28T13:14:39.180Z,102556.98
2023-02-28T13:17:37.700Z,102556.14
2023-02-28T13:20:20.158Z,102554.70
2023-02-28T13:22:53.644Z,102554.20
2023-02-28T13:25:55.827Z,102556.42
2023-02-28T13:29:09.321Z,102553.73
2023-02-28T13:32:11.965Z,102556.61
2023-02-28T13:35:06.734Z,102551.54
2023-02-28T13:37:43.907Z,102548.62
2023-02-28T13:40:37.709Z,102546.89
2023-02-28T13:43:13.585Z,102546.78
2023-02-28T13:46:13.034Z,102540.54
2023-02-28T13:48:44.545Z,102539.86
2023-02-28T13:51:46.958Z,102531.72
2023-02-28T13:54:31.951Z,102526.95
2023-02-28T13:57:26.761Z,102519.36
2023-02-28T14:00:17.707Z,102517.98
2023-02-28T14:03:22.046Z,102512.98
2023-02-28T14:06:13.057Z,102509.80
2023-02-28T14:08:55.900Z,102508.47
2023-02-28T14:11:33.154Z,102503.02
2023-02-28T14:14:07.511Z,102500.98
2023-02-28T14:16:48.111Z,102498.92
2023-02-28T14:19:26.050Z,102493.41
2023-02-28T14:22:13.775Z,102486.85
2023-02-28T14:25:22.959Z,102492.52
2023-02-28T14:28:08.820Z,102492.77
2023-02-28T14:31:03.852Z,102492.18
2023-02-28T14:33:59.310Z,102492.40
2023-02-28T14:36:36.962Z,102487.33
2023-02-28T14:39:16.770Z,102481.33
2023-02-28T14:41:49.786Z,102471.86
2023-02-28T14:44:24.008Z,102466.95
2023-02-28T14:46:58.749Z,102465.26
2023-02-28T14:49:32.876Z,102468.39
2023-02-28T14:52:16.893Z,102471.79
2023-02-28T14:54:53.438Z,102473.05
2023-02-28T14:57:27.528Z,102476.68
2023-02-28T15:00:11.068Z,102477.86
2023-02-28T15:02:44.096Z,102482.92
2023-02-28T15:05:34.191Z,102481.71
2023-02-28T15:08:13.059Z,102484.34
2023-02-28T15:10:47.868Z,102486.15
2023-02-28T15:13:24.101Z,102482.02
2023-02-28T15:16:03.024Z,102479.78
2023-02-28T15:18:44.921Z,102483.55
2023-02-28T15:21:19.112Z,102480.02
2023-02-28T15:23:55.341Z,102483.15
2023-02-28T15:26:34.537Z,102482.45
2023-02-28T15:29:10.924Z,102484.16
2023-02-28T15:31:56.941Z,102482.80
2023-02-28T15:34:44.101Z,102481.09
2023-02-28T15:37:35.368Z,102482.81
2023-02-28T15:40:16.641Z,102480.03
2023-02-28T15:43:05.872Z,102475.21
2023-02-28T15:45:42.471Z,102477.84
2023-02-28T15:48:22.432Z,102481.69
2023-02-28T15:50:57.810Z,102478.33
2023-02-28T15:53:35.333Z,102478.50
2023-02-28T15:56:28.361Z,102480.53
2023-02-28T15:59:04.224Z,102482.82
2023-02-28T16:01:39.141Z,102482.97
2023-02-28T16:04:19.580Z,102481.06
2023-02-28T16:07:05.062Z,102484.45
2023-02-28T16:09:43.133Z,102477.05
2023-02-28T16:12:15.188Z,102485.03
2023-02-28T16:14:49.143Z,102482.24
2023-02-28T16:17:25.755Z,102482.86
2023-02-28T16:19:59.505Z,102485.31
2023-02-28T16:22:31.748Z,102487.67
2023-02-28T16:25:04.845Z,102486.88
2023-02-28T16:27:41.043Z,102490.43
2023-02-28T16:30:23.983Z,102489.67
2023-02-28T16:32:58.832Z,102490.33
2023-02-28T16:35:31.916Z,102489.48
2023-02-28T16:38:04.441Z,102491.81
2023-02-28T16:40:39.590Z,102490.86
2023-02-28T16:43:27.035Z,102497.94
2023-02-28T16:46:01.556Z,102504.52
2023-02-28T16:48:33.836Z,102506.25
2023-02-28T16:51:07.836Z,102511.30
2023-02-28T16:53:41.706Z,102516.23
2023-02-28T16:56:19.706Z,102515.67
2023-02-28T16:58:54.109Z,102517.73
2023-02-28T17:01:27.640Z,102516.37
2023-02-28T17:04:01.168Z,102515.20
2023-02-28T17:06:34.256Z,102514.36
2023-02-28T17:09:06.895Z,102515.08
2023-02-28T17:11:40.958Z,102512.28
2023-02-28T17:14:15.335Z,102510.99
2023-02-28T17:16:48.222Z,102507.41
2023-02-28T17:19:23.612Z,102512.82
2023-02-28T17:21:55.039Z,102516.17
2023-02-28T17:24:31.286Z,102516.59
2023-02-28T17:27:04.526Z,102515.58
2023-02-28T17:29:36.558Z,102511.67
2023-02-28T17:32:17.927Z,102515.88
2023-02-28T17:34:51.290Z,102509.98
2023-02-28T17:37:22.669Z,102511.63
2023-02-28T17:39:55.542Z,102511.05
2023-02-28T17:42:27.442Z,102514.66
2023-02-28T17:44:59.287Z,102503.48
2023-02-28T17:47:31.987Z,102496.52
2023-02-28T17:50:04.888Z,102491.41
2023-02-28T17:52:37.233Z,102489.40
2023-02-28T17:55:10.776Z,102490.38
2023-02-28T17:57:44.578Z,102484.87
2023-02-28T18:00:25.984Z,102484.03
2023-02-28T18:02:57.101Z,102482.64
2023-02-28T18:05:30.168Z,102479.65
2023-02-28T18:08:02.425Z,102471.94
2023-02-28T18:10:35.009Z,102471.61
2023-02-28T18:13:07.801Z,102471.42
2023-02-28T18:15:40.638Z,102473.30
2023-02-28T18:18:16.627Z,102469.89
2023-02-28T18:20:50.691Z,102466.46
2023-02-28T18:23:22.556Z,102462.73
2023-02-28T18:25:56.655Z,102462.89
2023-02-28T18:28:29.291Z,102467.29
2023-02-28T18:31:06.773Z,102465.23
2023-02-28T18:33:39.268Z,102465.89
2023-02-28T18:36:11.946Z,102466.56
2023-02-28T18:38:44.201Z,102466.25
2023-02-28T18:41:15.755Z,102467.61
2023-02-28T18:43:48.468Z,102477.67
2023-02-28T18:46:23.361Z,102475.98
2023-02-28T18:48:55.344Z,102475.14
2023-02-28T18:51:28.862Z,102477.33
2023-02-28T18:54:01.521Z,102477.14
2023-02-28T18:56:33.258Z,102472.54
2023-02-28T18:59:07.110Z,102475.61
2023-02-28T19:01:38.284Z,102467.34
2023-02-28T19:04:13.618Z,102472.20
2023-02-28T19:06:46.770Z,102475.33
2023-02-28T19:09:22.976Z,102478.77
2023-02-28T19:11:53.398Z,102482.78
2023-02-28T19:14:24.431Z,102483.52
2023-02-28T19:16:57.502Z,102485.94
2023-02-28T19:19:28.625Z,102491.17
2023-02-28T19:22:00.668Z,102493.02
2023-02-28T19:24:34.692Z,102492.46
2023-02-28T19:27:06.778Z,102488.60
2023-02-28T19:29:39.377Z,102493.48
2023-02-28T19:32:12.019Z,102494.79
2023-02-28T19:34:46.049Z,102495.19
2023-02-28T19:37:17.427Z,102493.45
2023-02-28T19:39:49.878Z,102489.65
2023-02-28T19:42:21.269Z,102495.79
2023-02-28T19:44:53.420Z,102500.17
2023-02-28T19:47:28.554Z,102500.95
2023-02-28T19:50:00.940Z,102511.32
2023-02-28T19:52:31.464Z,102516.68
2023-02-28T19:55:05.508Z,102520.01
2023-02-28T19:57:37.275Z,102522.92
2023-02-28T20:00:15.411Z,102519.67
2023-02-28T20:02:48.469Z,102516.76
2023-02-28T20:05:23.225Z,102510.20
2023-02-28T20:07:55.241Z,102508.59
2023-02-28T20:10:26.896Z,102508.04
2023-02-28T20:13:02.161Z,102514.89
2023-02-28T20:15:34.914Z,102513.82
2023-02-28T20:18:08.024Z,102509.31
2023-02-28T20:20:41.693Z,102513.10
2023-02-28T20:23:13.434Z,102519.70
2023-02-28T20:25:46.093Z,102517.08
2023-02-28T20:28:19.022Z,102517.03
2023-02-28T20:30:51.107Z,102516.31
2023-02-28T20:33:22.017Z,102517.10
2023-02-28T20:36:01.074Z,102512.70
2023-02-28T20:38:33.396Z,102510.41
2023-02-28T20:41:07.224Z,102510.33
2023-02-28T20:43:40.438Z,102510.59
2023-02-28T20:46:12.167Z,102506.43
2023-02-28T20:48:46.669Z,102504.18
2023-02-28T20:51:18.250Z,102505.75
2023-02-28T20:53:51.527Z,102507.32
2023-02-28T20:56:24.968Z,102506.21
2023-02-28T20:58:57.896Z,102513.02
2023-02-28T21:01:30.184Z,102508.51
2023-02-28T21:04:03.142Z,102515.30
2023-02-28T21:06:36.774Z,102515.84
2023-02-28T21:09:09.540Z,102516.33
2023-02-28T21:11:43.977Z,102520.02
2023-02-28T21:14:18.180Z,102521.20
2023-02-28T21:16:49.839Z,102520.79
2023-02-28T21:19:22.746Z,102521.40
2023-02-28T21:21:56.618Z,102516.36
2023-02-28T21:24:29.689Z,102515.72
2023-02-28T21:27:02.668Z,102518.05
2023-02-28T21:29:34.415Z,102520.30
2023-02-28T21:32:07.811Z,102521.23
2023-02-28T21:34:39.893Z,102511.03
2023-02-28T21:37:11.694Z,102511.73
2023-02-28T21:39:42.809Z,102513.66
2023-02-28T21:42:14.952Z,102517.67
2023-02-28T21:44:48.856Z,102514.96
2023-02-28T21:47:26.111Z,102515.19
2023-02-28T21:49:58.974Z,102512.92
2023-02-28T21:52:30.911Z,102510.90
2023-02-28T21:55:05.063Z,102508.02
2023-02-28T21:57:39.619Z,102507.48
2023-02-28T22:00:17.137Z,102505.23
2023-02-28T22:02:50.100Z,102503.29
2023-02-28T22:05:23.594Z,102502.37
2023-02-28T22:08:01.092Z,102499.41
2023-02-28T22:10:42.270Z,102495.44
2023-02-28T22:13:13.490Z,102490.73
2023-02-28T22:15:45.038Z,102494.27
2023-02-28T22:18:17.274Z,102496.30
2023-02-28T22:20:56.358Z,102502.81
2023-02-28T22:23:26.956Z,102496.98
2023-02-28T22:26:02.726Z,102495.56
2023-02-28T22:28:36.150Z,102492.00
2023-02-28T22:31:18.190Z,102496.27
2023-02-28T22:33:52.393Z,102498.88
2023-02-28T22:36:23.921Z,102495.88
2023-02-28T22:38:55.487Z,102496.84
2023-02-28T22:41:27.688Z,102495.97
2023-02-28T22:44:00.981Z,102495.63
2023-02-28T22:46:35.915Z,102497.08
2023-02-28T22:49:08.326Z,102503.09
2023-02-28T22:51:40.627Z,102507.82
2023-02-28T22:54:11.560Z,102508.38
2023-02-28T22:56:43.719Z,102509.27
2023-02-28T22:59:17.219Z,102509.38
2023-02-28T23:01:49.674Z,102512.89
2023-02-28T23:04:25.501Z,102508.81
2023-02-28T23:06:58.592Z,102503.76
2023-02-28T23:09:30.185Z,102505.30
2023-02-28T23:12:02.780Z,102494.01
2023-02-28T23:14:36.230Z,102494.86
2023-02-28T23:17:09.767Z,102490.68
2023-02-28T23:19:42.562Z,102492.87
2023-02-28T23:22:16.301Z,102492.23
2023-02-28T23:24:47.331Z,102486.45
2023-02-28T23:27:19.263Z,102480.00
2023-02-28T23:29:50.838Z,102477.79
2023-02-28T23:32:21.547Z,102485.91
2023-02-28T23:34:56.189Z,102491.02
2023-02-28T23:37:32.539Z,102492.13
2023-02-28T23:40:08.172Z,102495.71
2023-02-28T23:42:41.209Z,102491.77
2023-02-28T23:45:14.696Z,102493.98
2023-02-28T23:47:47.462Z,102500.20
2023-02-28T23:50:21.036Z,102509.58
2023-02-28T23:52:56.380Z,102516.08
2023-02-28T23:55:30.588Z,102521.24
2023-02-28T23:58:03.869Z,102518.15
